createdAt,value
2019-02-25T00:02:31.441Z,26.00
2019-02-25T00:05:00.016Z,25.90
2019-02-25T00:07:28.466Z,25.80
2019-02-25T00:09:56.962Z,25.70
2019-02-25T00:12:25.424Z,25.80
2019-02-25T00:14:53.936Z,25.90
2019-02-25T00:17:22.480Z,25.90
2019-02-25T00:19:51.045Z,25.90
2019-02-25T00:22:19.528Z,25.90
2019-02-25T00:24:48.072Z,26.00
2019-02-25T00:27:16.527Z,26.10
2019-02-25T00:29:44.996Z,26.20
2019-02-25T00:32:13.473Z,26.20
2019-02-25T00:34:41.970Z,26.20
2019-02-25T00:37:10.417Z,26.30
2019-02-25T00:39:38.921Z,26.30
2019-02-25T00:42:07.472Z,26.30
2019-02-25T00:44:35.961Z,26.30
2019-02-25T00:47:04.579Z,26.30
2019-02-25T00:49:33.115Z,26.40
2019-02-25T00:52:01.597Z,26.20
2019-02-25T00:54:30.084Z,26.30
2019-02-25T00:56:58.633Z,26.30
2019-02-25T00:59:27.089Z,26.30
2019-02-25T01:01:55.588Z,26.30
2019-02-25T01:04:24.132Z,26.30
2019-02-25T01:06:52.769Z,26.30
2019-02-25T01:09:21.315Z,26.30
2019-02-25T01:11:49.889Z,26.30
2019-02-25T01:14:18.376Z,26.40
2019-02-25T01:16:46.898Z,26.40
2019-02-25T01:19:15.373Z,26.30
2019-02-25T01:21:43.838Z,26.30
2019-02-25T01:24:12.318Z,26.30
2019-02-25T01:26:40.786Z,26.30
2019-02-25T01:29:09.285Z,26.20
2019-02-25T01:31:37.845Z,26.30
2019-02-25T01:34:06.409Z,26.30
2019-02-25T01:36:34.867Z,26.30
2019-02-25T01:39:04.533Z,26.30
2019-02-25T01:41:33.017Z,26.40
2019-02-25T01:44:01.560Z,26.50
2019-02-25T01:46:30.037Z,26.60
2019-02-25T01:48:58.580Z,26.70
2019-02-25T01:51:27.027Z,26.80
2019-02-25T01:53:55.537Z,26.80
2019-02-25T01:56:24.075Z,26.80
2019-02-25T01:58:52.571Z,26.80
2019-02-25T02:01:21.030Z,26.80
2019-02-25T02:03:49.529Z,26.80
2019-02-25T02:06:18.001Z,26.80
2019-02-25T02:08:46.547Z,26.90
2019-02-25T02:11:15.099Z,26.90
2019-02-25T02:13:43.577Z,27.00
2019-02-25T02:16:12.060Z,27.00
2019-02-25T02:18:40.587Z,27.00
2019-02-25T02:21:10.128Z,27.00
2019-02-25T02:23:38.676Z,27.10
2019-02-25T02:26:07.170Z,27.10
2019-02-25T02:28:35.713Z,27.10
2019-02-25T02:31:04.286Z,27.10
2019-02-25T02:33:32.835Z,26.90
2019-02-25T02:36:01.407Z,26.90
2019-02-25T02:38:29.859Z,27.00
2019-02-25T02:40:58.363Z,27.00
2019-02-25T02:43:26.810Z,27.00
2019-02-25T02:46:03.990Z,27.00
2019-02-25T02:48:41.083Z,27.10
2019-02-25T02:51:09.562Z,27.10
2019-02-25T02:53:38.044Z,27.10
2019-02-25T02:56:06.622Z,27.10
2019-02-25T02:58:35.078Z,27.10
2019-02-25T03:01:03.532Z,27.10
2019-02-25T03:03:32.013Z,27.10
2019-02-25T03:06:00.492Z,27.20
2019-02-25T03:08:29.048Z,27.10
2019-02-25T03:10:57.526Z,27.10
2019-02-25T03:13:26.868Z,27.10
2019-02-25T03:15:55.396Z,27.40
2019-02-25T03:18:23.884Z,27.10
2019-02-25T03:20:52.367Z,27.10
2019-02-25T03:23:20.912Z,27.10
2019-02-25T03:25:49.387Z,27.20
2019-02-25T03:28:17.883Z,27.20
2019-02-25T03:30:46.434Z,27.20
2019-02-25T03:33:14.983Z,27.30
2019-02-25T03:35:43.451Z,27.30
2019-02-25T03:38:11.941Z,27.30
2019-02-25T03:40:40.393Z,27.40
2019-02-25T03:43:08.951Z,27.50
2019-02-25T03:45:37.488Z,27.40
2019-02-25T03:48:05.969Z,27.40
2019-02-25T03:50:34.466Z,27.40
2019-02-25T03:53:02.998Z,27.40
2019-02-25T03:55:31.559Z,27.40
2019-02-25T03:58:00.016Z,27.50
2019-02-25T04:00:28.563Z,27.50
2019-02-25T04:02:57.472Z,27.60
2019-02-25T04:05:25.970Z,27.60
2019-02-25T04:07:54.497Z,27.60
2019-02-25T04:10:22.973Z,27.70
2019-02-25T04:12:51.535Z,27.70
2019-02-25T04:15:22.188Z,27.70
2019-02-25T04:17:50.723Z,27.70
2019-02-25T04:20:19.347Z,27.70
2019-02-25T04:22:47.884Z,27.80
2019-02-25T04:25:16.350Z,27.80
2019-02-25T04:27:44.894Z,27.80
2019-02-25T04:30:16.816Z,27.80
2019-02-25T04:32:45.362Z,27.90
2019-02-25T04:35:14.554Z,27.80
2019-02-25T04:37:43.282Z,27.90
2019-02-25T04:40:13.620Z,27.80
2019-02-25T04:42:42.133Z,27.80
2019-02-25T04:45:18.316Z,27.80
2019-02-25T04:47:46.880Z,27.70
2019-02-25T04:50:15.428Z,27.80
2019-02-25T04:52:44.028Z,27.90
2019-02-25T04:55:13.574Z,27.90
2019-02-25T04:57:42.047Z,28.00
2019-02-25T05:00:19.386Z,28.00
2019-02-25T05:02:47.867Z,28.10
2019-02-25T05:05:16.329Z,28.10
2019-02-25T05:07:44.814Z,28.10
2019-02-25T05:10:14.783Z,28.20
2019-02-25T05:12:47.349Z,28.10
2019-02-25T05:15:17.638Z,28.10
2019-02-25T05:17:46.162Z,28.20
2019-02-25T05:20:14.720Z,28.30
2019-02-25T05:22:43.180Z,28.20
2019-02-25T05:25:12.346Z,28.20
2019-02-25T05:27:40.868Z,28.20
2019-02-25T05:30:18.300Z,28.20
2019-02-25T05:32:46.742Z,28.30
2019-02-25T05:35:15.238Z,28.20
2019-02-25T05:37:43.792Z,28.20
2019-02-25T05:40:16.389Z,28.20
2019-02-25T05:42:44.936Z,28.20
2019-02-25T05:45:14.827Z,28.20
2019-02-25T05:47:43.281Z,28.20
2019-02-25T05:50:16.940Z,28.30
2019-02-25T05:52:45.459Z,28.30
2019-02-25T05:55:17.302Z,28.30
2019-02-25T05:57:45.910Z,28.30
2019-02-25T06:00:18.906Z,28.30
2019-02-25T06:02:47.558Z,28.30
2019-02-25T06:05:16.100Z,28.30
2019-02-25T06:07:44.681Z,28.30
2019-02-25T06:10:13.968Z,28.30
2019-02-25T06:12:42.515Z,28.30
2019-02-25T06:15:15.947Z,28.30
2019-02-25T06:17:44.430Z,28.30
2019-02-25T06:20:14.515Z,28.30
2019-02-25T06:22:43.081Z,28.30
2019-02-25T06:25:13.203Z,28.40
2019-02-25T06:27:41.827Z,28.40
2019-02-25T06:30:20.669Z,28.50
2019-02-25T06:32:49.163Z,28.40
2019-02-25T06:35:17.857Z,28.40
2019-02-25T06:37:46.390Z,28.40
2019-02-25T06:40:18.472Z,28.40
2019-02-25T06:42:47.071Z,28.40
2019-02-25T06:45:20.413Z,28.50
2019-02-25T06:47:48.965Z,28.50
2019-02-25T06:58:17.918Z,28.60
2019-02-25T07:00:46.420Z,28.60
2019-02-25T07:03:14.971Z,28.60
2019-02-25T07:05:47.790Z,28.70
2019-02-25T07:08:17.899Z,28.70
2019-02-25T07:10:57.168Z,28.70
2019-02-25T07:13:27.293Z,28.70
2019-02-25T07:16:13.370Z,28.70
2019-02-25T07:18:43.550Z,28.70
2019-02-25T07:21:19.558Z,28.70
2019-02-25T07:23:52.136Z,28.80
2019-02-25T07:26:36.841Z,28.80
2019-02-25T07:29:06.998Z,28.90
2019-02-25T07:31:37.151Z,28.90
2019-02-25T07:34:22.212Z,28.90
2019-02-25T07:37:08.078Z,29.00
2019-02-25T07:39:38.185Z,28.90
2019-02-25T07:42:20.012Z,28.90
2019-02-25T07:44:50.126Z,28.80
2019-02-25T07:47:26.262Z,28.80
2019-02-25T07:50:05.320Z,28.80
2019-02-25T07:52:44.176Z,28.70
2019-02-25T07:55:14.406Z,28.70
2019-02-25T07:57:44.524Z,28.70
2019-02-25T08:00:17.196Z,28.70
2019-02-25T08:03:04.411Z,28.60
2019-02-25T08:05:50.698Z,28.60
2019-02-25T08:08:23.674Z,28.60
2019-02-25T08:10:56.520Z,28.50
2019-02-25T08:13:26.623Z,28.40
2019-02-25T08:15:59.428Z,28.40
2019-02-25T08:18:29.614Z,28.30
2019-02-25T08:20:59.796Z,28.30
2019-02-25T08:23:35.736Z,28.30
2019-02-25T08:26:15.007Z,28.30
2019-02-25T08:28:48.196Z,28.20
2019-02-25T08:31:18.320Z,28.10
2019-02-25T08:33:55.543Z,28.10
2019-02-25T08:36:49.573Z,28.10
2019-02-25T08:39:25.616Z,28.00
2019-02-25T08:41:55.621Z,28.00
2019-02-25T08:44:40.806Z,27.90
2019-02-25T08:47:13.912Z,27.80
2019-02-25T08:49:44.023Z,27.90
2019-02-25T08:52:12.580Z,27.80
2019-02-25T08:54:41.062Z,27.70
2019-02-25T08:57:09.696Z,27.60
2019-02-25T08:59:38.225Z,27.60
2019-02-25T09:02:06.872Z,27.60
2019-02-25T09:04:35.429Z,27.40
2019-02-25T09:07:03.985Z,27.40
2019-02-25T09:09:32.535Z,26.90
2019-02-25T09:12:01.029Z,26.80
2019-02-25T09:14:29.508Z,26.70
2019-02-25T09:16:57.981Z,26.70
2019-02-25T09:19:26.468Z,26.50
2019-02-25T09:21:54.925Z,26.40
2019-02-25T09:24:23.415Z,26.30
2019-02-25T09:26:51.975Z,26.10
2019-02-25T09:29:20.540Z,26.00
2019-02-25T09:31:49.024Z,25.90
2019-02-25T09:34:17.522Z,25.90
2019-02-25T09:36:45.979Z,25.70
2019-02-25T09:39:14.467Z,25.70
2019-02-25T09:41:43.272Z,25.50
2019-02-25T09:44:11.764Z,25.60
2019-02-25T09:46:40.258Z,25.50
2019-02-25T09:49:08.810Z,25.40
2019-02-25T09:51:37.337Z,25.30
2019-02-25T09:54:05.934Z,25.30
2019-02-25T09:56:37.276Z,25.20
2019-02-25T09:59:04.714Z,25.20
2019-02-25T10:01:33.207Z,25.10
2019-02-25T10:04:01.687Z,25.20
2019-02-25T10:06:30.165Z,25.10
2019-02-25T10:08:58.631Z,25.10
2019-02-25T10:11:27.121Z,24.90
2019-02-25T10:13:55.608Z,24.60
2019-02-25T10:16:24.168Z,24.60
2019-02-25T10:18:52.693Z,24.60
2019-02-25T10:21:21.197Z,24.60
2019-02-25T10:23:49.657Z,24.60
2019-02-25T10:26:18.141Z,24.50
2019-02-25T10:28:46.604Z,24.40
2019-02-25T10:31:15.703Z,24.40
2019-02-25T10:33:45.269Z,24.30
2019-02-25T10:36:13.769Z,24.20
2019-02-25T10:38:42.315Z,24.30
2019-02-25T10:41:10.853Z,24.00
2019-02-25T10:43:39.411Z,23.80
2019-02-25T10:46:09.520Z,23.60
2019-02-25T10:48:38.183Z,23.50
2019-02-25T10:51:09.259Z,23.50
2019-02-25T10:53:37.907Z,23.50
2019-02-25T10:56:09.502Z,23.30
2019-02-25T10:58:37.993Z,23.60
2019-02-25T11:01:08.481Z,23.40
2019-02-25T11:03:36.879Z,23.40
2019-02-25T11:06:05.321Z,23.40
2019-02-25T11:08:35.136Z,23.20
2019-02-25T11:11:16.213Z,23.10
2019-02-25T11:13:44.622Z,23.10
2019-02-25T11:16:14.009Z,23.40
2019-02-25T11:18:43.412Z,23.40
2019-02-25T11:21:11.943Z,23.30
2019-02-25T11:23:40.426Z,23.10
2019-02-25T11:26:09.368Z,23.10
2019-02-25T11:28:39.161Z,23.10
2019-02-25T11:31:08.177Z,22.60
2019-02-25T11:33:36.702Z,22.50
2019-02-25T11:36:05.182Z,22.30
2019-02-25T11:38:37.096Z,22.40
2019-02-25T11:41:06.365Z,22.00
2019-02-25T11:43:34.182Z,21.70
2019-02-25T11:46:02.800Z,21.80
2019-02-25T11:48:31.285Z,21.80
2019-02-25T11:50:59.901Z,21.70
2019-02-25T11:53:28.363Z,22.10
2019-02-25T11:55:56.862Z,22.30
2019-02-25T11:58:25.421Z,22.50
2019-02-25T12:00:54.078Z,22.60
2019-02-25T12:07:02.446Z,22.80
2019-02-25T12:09:31.006Z,22.80
2019-02-25T12:11:59.548Z,22.80
2019-02-25T12:14:28.006Z,22.90
2019-02-25T12:16:56.483Z,23.10
2019-02-25T12:19:24.942Z,23.20
2019-02-25T12:21:53.422Z,23.20
2019-02-25T12:24:21.880Z,23.30
2019-02-25T12:26:50.359Z,23.10
2019-02-25T12:29:18.832Z,23.10
2019-02-25T12:31:47.315Z,23.20
2019-02-25T12:34:15.810Z,23.30
2019-02-25T12:36:44.356Z,23.30
2019-02-25T12:39:12.920Z,22.90
2019-02-25T12:41:41.383Z,22.90
2019-02-25T12:44:09.894Z,22.90
2019-02-25T12:46:39.155Z,22.90
2019-02-25T12:49:07.726Z,23.10
2019-02-25T12:51:36.198Z,23.40
2019-02-25T12:54:04.766Z,23.50
2019-02-25T12:56:33.328Z,23.40
2019-02-25T12:59:01.901Z,23.10
2019-02-25T13:01:30.445Z,23.10
2019-02-25T13:03:58.946Z,23.10
2019-02-25T13:06:27.414Z,23.10
2019-02-25T13:08:55.967Z,23.10
2019-02-25T13:11:24.570Z,23.30
2019-02-25T13:13:53.088Z,23.30
2019-02-25T13:16:21.598Z,23.40
2019-02-25T13:18:50.138Z,23.60
2019-02-25T13:21:18.724Z,23.50
2019-02-25T13:23:47.266Z,23.20
2019-02-25T13:26:15.819Z,23.30
2019-02-25T13:28:44.378Z,23.20
2019-02-25T13:31:12.960Z,23.50
2019-02-25T13:33:41.476Z,23.00
2019-02-25T13:36:13.151Z,22.80
2019-02-25T13:38:41.695Z,22.80
2019-02-25T13:41:10.234Z,22.80
2019-02-25T13:43:38.770Z,22.90
2019-02-25T13:46:07.416Z,23.10
2019-02-25T13:48:35.971Z,23.00
2019-02-25T13:51:04.731Z,23.00
2019-02-25T13:53:33.274Z,23.00
2019-02-25T13:56:01.945Z,22.90
2019-02-25T13:58:30.501Z,22.90
2019-02-25T14:00:59.071Z,23.00
2019-02-25T14:03:27.707Z,23.00
2019-02-25T14:05:56.329Z,23.10
2019-02-25T14:08:25.126Z,23.10
2019-02-25T14:10:53.714Z,23.30
2019-02-25T14:13:22.277Z,23.40
2019-02-25T14:15:50.794Z,23.50
2019-02-25T14:18:19.361Z,23.40
2019-02-25T14:20:47.921Z,23.20
2019-02-25T14:23:18.444Z,23.20
2019-02-25T14:25:46.831Z,23.00
2019-02-25T14:28:15.459Z,23.20
2019-02-25T14:30:44.080Z,23.00
2019-02-25T14:33:14.751Z,22.50
2019-02-25T14:35:42.914Z,22.50
2019-02-25T14:38:17.374Z,22.40
2019-02-25T14:40:44.868Z,22.20
2019-02-25T14:43:15.611Z,22.00
2019-02-25T14:45:46.420Z,21.90
2019-02-25T14:48:18.238Z,21.60
2019-02-25T14:50:44.738Z,21.40
2019-02-25T14:53:14.372Z,21.40
2019-02-25T14:55:46.823Z,21.40
2019-02-25T14:58:15.502Z,21.50
2019-02-25T15:00:43.729Z,21.20
2019-02-25T15:03:12.288Z,21.20
2019-02-25T15:05:41.108Z,21.20
2019-02-25T15:08:10.084Z,21.20
2019-02-25T15:10:40.702Z,21.30
2019-02-25T15:13:10.616Z,21.50
2019-02-25T15:15:41.150Z,21.40
2019-02-25T15:18:09.524Z,21.40
2019-02-25T15:20:38.111Z,21.40
2019-02-25T15:23:07.499Z,21.30
2019-02-25T15:25:40.252Z,21.30
2019-02-25T15:28:09.680Z,21.30
2019-02-25T15:30:36.475Z,20.80
2019-02-25T15:33:05.029Z,20.80
2019-02-25T15:35:35.091Z,20.60
2019-02-25T15:38:04.101Z,20.40
2019-02-25T15:40:32.733Z,20.40
2019-02-25T15:43:13.370Z,20.40
2019-02-25T15:45:43.796Z,20.40
2019-02-25T15:48:17.616Z,20.40
2019-02-25T15:50:48.416Z,20.00
2019-02-25T15:53:16.592Z,20.10
2019-02-25T15:55:45.220Z,20.10
2019-02-25T15:58:13.791Z,20.10
2019-02-25T16:00:44.157Z,20.20
2019-02-25T16:03:13.754Z,20.30
2019-02-25T16:05:44.171Z,20.40
2019-02-25T16:08:16.140Z,20.50
2019-02-25T16:10:43.727Z,20.70
2019-02-25T16:13:14.280Z,20.90
2019-02-25T16:15:42.726Z,21.00
2019-02-25T16:18:13.780Z,21.20
2019-02-25T16:20:45.783Z,21.30
2019-02-25T16:23:12.971Z,21.40
2019-02-25T16:25:41.970Z,21.40
2019-02-25T16:28:12.559Z,21.50
2019-02-25T16:30:42.433Z,21.50
2019-02-25T16:33:12.618Z,21.60
2019-02-25T16:35:41.687Z,21.60
2019-02-25T16:38:11.444Z,21.70
2019-02-25T16:40:40.243Z,21.70
2019-02-25T16:43:12.077Z,21.80
2019-02-25T16:45:40.173Z,21.90
2019-02-25T16:48:09.364Z,22.00
2019-02-25T16:50:39.795Z,22.10
2019-02-25T16:53:10.287Z,22.20
2019-02-25T16:55:40.486Z,22.30
2019-02-25T16:58:11.235Z,22.30
2019-02-25T17:00:39.505Z,22.40
2019-02-25T17:03:10.648Z,22.40
2019-02-25T17:05:40.286Z,22.50
2019-02-25T17:08:12.613Z,22.60
2019-02-25T17:10:41.481Z,22.60
2019-02-25T17:13:10.907Z,22.70
2019-02-25T17:15:40.260Z,22.90
2019-02-25T17:18:09.224Z,23.00
2019-02-25T17:20:37.850Z,23.10
2019-02-25T17:23:09.568Z,23.10
2019-02-25T17:25:38.431Z,23.20
2019-02-25T17:28:08.180Z,23.30
2019-02-25T17:30:38.591Z,23.40
2019-02-25T17:33:10.044Z,23.50
2019-02-25T17:35:39.143Z,23.50
2019-02-25T17:38:07.762Z,23.60
2019-02-25T17:40:36.376Z,23.60
2019-02-25T17:43:05.778Z,23.70
2019-02-25T17:45:36.682Z,23.70
2019-02-25T17:48:06.020Z,23.90
2019-02-25T17:50:37.000Z,23.90
2019-02-25T17:53:07.151Z,23.90
2019-02-25T17:55:36.302Z,23.90
2019-02-25T17:58:05.099Z,23.90
2019-02-25T18:00:39.535Z,24.00
2019-02-25T18:03:08.471Z,24.10
2019-02-25T18:05:38.766Z,24.20
2019-02-25T18:08:10.539Z,24.30
2019-02-25T18:10:39.418Z,24.30
2019-02-25T18:13:08.678Z,24.30
2019-02-25T18:15:38.150Z,24.30
2019-02-25T18:18:09.165Z,24.30
2019-02-25T18:20:38.935Z,24.40
2019-02-25T18:23:07.568Z,24.50
2019-02-25T18:25:37.691Z,24.70
2019-02-25T18:28:08.376Z,24.70
2019-02-25T18:30:36.656Z,24.60
2019-02-25T18:33:05.630Z,24.60
2019-02-25T18:35:36.363Z,24.80
2019-02-25T18:38:06.768Z,24.90
2019-02-25T18:40:35.833Z,25.10
2019-02-25T18:43:06.820Z,25.00
2019-02-25T18:45:37.792Z,25.20
2019-02-25T18:48:07.618Z,25.10
2019-02-25T18:50:36.394Z,25.20
2019-02-25T18:53:05.315Z,25.20
2019-02-25T18:55:34.476Z,25.40
2019-02-25T18:58:05.167Z,25.40
2019-02-25T19:00:37.241Z,25.50
2019-02-25T19:03:06.758Z,25.50
2019-02-25T19:05:35.558Z,25.50
2019-02-25T19:08:09.686Z,25.80
2019-02-25T19:10:41.466Z,25.80
2019-02-25T19:13:09.183Z,25.90
2019-02-25T19:15:37.859Z,25.90
2019-02-25T19:18:06.875Z,26.00
2019-02-25T19:20:37.172Z,26.10
2019-02-25T19:23:09.494Z,26.10
2019-02-25T19:25:37.973Z,26.20
2019-02-25T19:28:06.896Z,26.20
2019-02-25T19:30:35.791Z,26.30
2019-02-25T19:33:11.060Z,26.40
2019-02-25T19:35:36.083Z,26.40
2019-02-25T19:38:07.560Z,26.50
2019-02-25T19:40:38.441Z,26.60
2019-02-25T19:43:06.718Z,26.60
2019-02-25T19:45:36.428Z,26.60
2019-02-25T19:48:07.211Z,26.70
2019-02-25T19:50:38.538Z,26.70
2019-02-25T19:53:07.647Z,26.80
2019-02-25T19:55:38.652Z,26.80
2019-02-25T19:58:06.477Z,26.80
2019-02-25T20:00:35.928Z,27.00
2019-02-25T20:03:06.061Z,26.90
2019-02-25T20:05:38.905Z,27.00
2019-02-25T20:08:05.299Z,27.10
2019-02-25T20:10:34.145Z,27.10
2019-02-25T20:13:05.635Z,27.20
2019-02-25T20:15:33.047Z,27.20
2019-02-25T20:18:01.603Z,27.20
2019-02-25T20:20:32.475Z,27.30
2019-02-25T20:23:03.826Z,27.30
2019-02-25T20:25:32.414Z,27.40
2019-02-25T20:28:02.530Z,27.40
2019-02-25T20:30:31.435Z,27.40
2019-02-25T20:33:01.230Z,27.40
2019-02-25T20:35:31.318Z,27.50
2019-02-25T20:38:00.444Z,27.40
2019-02-25T20:40:31.046Z,27.50
2019-02-25T20:43:02.868Z,27.50
2019-02-25T20:45:35.425Z,27.60
2019-02-25T20:48:04.180Z,27.60
2019-02-25T20:50:32.853Z,27.70
2019-02-25T20:53:05.553Z,27.70
2019-02-25T20:55:33.903Z,27.70
2019-02-25T20:58:01.858Z,27.70
2019-02-25T21:00:30.525Z,27.80
2019-02-25T21:02:59.055Z,27.80
2019-02-25T21:05:27.650Z,27.90
2019-02-25T21:07:57.966Z,27.90
2019-02-25T21:10:27.874Z,27.90
2019-02-25T21:12:57.720Z,27.90
2019-02-25T21:15:26.956Z,28.00
2019-02-25T21:17:57.589Z,28.00
2019-02-25T21:20:28.353Z,28.00
2019-02-25T21:22:57.789Z,28.00
2019-02-25T21:25:26.887Z,28.10
2019-02-25T21:27:59.239Z,28.10
2019-02-25T21:30:26.577Z,28.10
2019-02-25T21:32:57.208Z,28.10
2019-02-25T21:35:27.563Z,28.20
2019-02-25T21:37:55.587Z,28.20
2019-02-25T21:40:27.116Z,28.20
2019-02-25T21:42:56.620Z,28.30
2019-02-25T21:45:27.513Z,28.30
2019-02-25T21:47:56.619Z,28.40
2019-02-25T21:50:28.377Z,28.60
2019-02-25T21:52:55.937Z,28.50
2019-02-25T21:55:27.450Z,28.60
2019-02-25T21:57:55.461Z,28.60
2019-02-25T22:00:27.138Z,28.50
2019-02-25T22:02:56.174Z,28.50
2019-02-25T22:05:24.648Z,28.60
2019-02-25T22:07:55.330Z,28.70
2019-02-25T22:10:23.405Z,28.70
2019-02-25T22:12:51.903Z,28.70
2019-02-25T22:15:22.406Z,28.70
2019-02-25T22:17:53.287Z,28.80
2019-02-25T22:20:22.542Z,28.80
2019-02-25T22:22:54.491Z,28.70
2019-02-25T22:25:22.361Z,28.80
2019-02-25T22:27:50.934Z,28.80
2019-02-25T22:30:19.703Z,28.90
2019-02-25T22:32:48.241Z,28.90
2019-02-25T22:35:16.684Z,28.90
2019-02-25T22:37:49.396Z,28.90
2019-02-25T22:40:17.226Z,28.90
2019-02-25T22:42:48.062Z,28.80
2019-02-25T22:45:18.784Z,28.90
2019-02-25T22:47:47.641Z,28.90
2019-02-25T22:50:18.908Z,28.90
2019-02-25T22:52:52.238Z,28.90
2019-02-25T22:55:19.782Z,29.00
2019-02-25T22:57:50.557Z,29.00
2019-02-25T23:00:36.568Z,29.00
2019-02-25T23:03:05.187Z,29.00
2019-02-25T23:05:33.755Z,28.90
2019-02-25T23:08:02.226Z,29.00
2019-02-25T23:10:30.795Z,29.00
2019-02-25T23:12:59.322Z,29.00
2019-02-25T23:15:30.309Z,29.10
2019-02-25T23:18:04.912Z,29.60
2019-02-25T23:20:29.573Z,29.70
2019-02-25T23:23:00.061Z,29.70
2019-02-25T23:25:28.610Z,29.80
2019-02-25T23:27:58.468Z,29.80
2019-02-25T23:30:27.258Z,29.80
2019-02-25T23:32:55.766Z,29.80
2019-02-25T23:35:25.402Z,29.80
2019-02-25T23:37:56.246Z,29.80
2019-02-25T23:40:24.311Z,29.80
2019-02-25T23:42:52.798Z,29.80
2019-02-25T23:45:23.189Z,29.90
2019-02-25T23:47:55.144Z,30.00
2019-02-25T23:50:22.107Z,30.00
2019-02-25T23:52:50.659Z,30.00
2019-02-25T23:55:21.741Z,30.00
2019-02-25T23:57:49.504Z,30.00
